Time;durP1;ratioP1;P1;durP2;ratioP2;P2;SDS_P1;SDS_P2;PMS_P1;PMS_P2;Temp;Humidity;BMP_temperature;BMP_pressure;BME280_temperature;BME280_humidity;BME280_pressure;Samples;Min_cycle;Max_cycle;Signal;HPM_P1;HPM_P2
2021/04/20 04:01:48;;;;;;;38.90;26.63;;;5.10;96.30;;;;;;5462614;23;20502;-75
2021/04/20 04:04:23;;;;;;;89.53;48.27;;;5.10;96.30;;;;;;5061337;28;20430;-75
2021/04/20 04:06:50;;;;;;;84.77;49.80;;;5.10;96.30;;;;;;5054653;28;20826;-75
2021/04/20 04:09:18;;;;;;;114.90;64.00;;;5.10;96.30;;;;;;5052216;28;20410;-75
2021/04/20 04:11:54;;;;;;;106.07;60.47;;;5.10;96.30;;;;;;5049877;28;20488;-75
2021/04/20 04:14:22;;;;;;;103.93;56.50;;;5.20;96.30;;;;;;5069948;23;21011;-81
2021/04/20 04:16:49;;;;;;;91.13;51.10;;;5.20;96.30;;;;;;5040949;28;20410;-81
2021/04/20 04:19:17;;;;;;;41.93;28.30;;;5.30;96.30;;;;;;5052301;28;20410;-81
2021/04/20 04:21:47;;;;;;;44.63;30.03;;;5.30;96.30;;;;;;5055393;28;20449;-81
2021/04/20 04:24:16;;;;;;;44.93;29.47;;;5.30;96.30;;;;;;5035908;28;20430;-81
2021/04/20 04:26:49;;;;;;;42.53;28.80;;;5.40;96.30;;;;;;5055244;28;20425;-81
2021/04/20 04:29:16;;;;;;;45.00;31.40;;;5.40;96.30;;;;;;5037289;28;20429;-81
2021/04/20 04:31:44;;;;;;;42.87;30.20;;;5.40;96.30;;;;;;5052884;28;20445;-81
2021/04/20 04:34:13;;;;;;;42.27;29.40;;;5.40;96.30;;;;;;5055445;28;20526;-81
2021/04/20 04:36:41;;;;;;;43.77;30.23;;;5.40;96.30;;;;;;5055110;28;20398;-81
2021/04/20 04:39:10;;;;;;;45.40;28.60;;;5.40;96.30;;;;;;5054015;28;20406;-80
2021/04/20 04:41:36;;;;;;;38.53;28.30;;;5.40;96.30;;;;;;5035375;28;20453;-81
2021/04/20 04:44:02;;;;;;;44.27;28.67;;;5.40;96.30;;;;;;5036270;28;20417;-81
2021/04/20 04:46:27;;;;;;;47.20;29.57;;;5.30;96.30;;;;;;5055701;28;20175;-80
2021/04/20 04:48:53;;;;;;;42.00;29.90;;;5.30;96.30;;;;;;5037877;28;20225;-81
2021/04/20 04:51:20;;;;;;;37.07;25.73;;;5.30;96.30;;;;;;5037732;28;20176;-81
2021/04/20 04:53:46;;;;;;;42.03;29.20;;;5.30;96.30;;;;;;5055983;28;20175;-81
2021/04/20 04:56:13;;;;;;;45.67;28.20;;;5.30;96.30;;;;;;5054933;28;20441;-83
2021/04/20 04:58:39;;;;;;;37.77;28.53;;;5.30;96.30;;;;;;5038176;28;20476;-82
2021/04/20 05:01:05;;;;;;;43.27;28.43;;;5.30;96.30;;;;;;5038148;28;20457;-83
2021/04/20 05:03:31;;;;;;;45.43;29.67;;;5.30;96.30;;;;;;5055726;28;20744;-83
2021/04/20 05:05:59;;;;;;;37.07;29.30;;;5.30;96.30;;;;;;5036967;28;20196;-84
2021/04/20 05:08:25;;;;;;;45.53;29.63;;;5.30;96.30;;;;;;5057250;28;20554;-82
2021/04/20 05:10:51;;;;;;;78.70;47.00;;;5.30;96.30;;;;;;5057967;28;20428;-82
2021/04/20 05:13:17;;;;;;;49.73;31.03;;;5.40;96.30;;;;;;5056127;28;20202;-83
2021/04/20 05:15:43;;;;;;;47.90;30.40;;;5.40;96.30;;;;;;5040510;28;20237;-83
2021/04/20 05:18:13;;;;;;;51.33;31.77;;;5.50;96.30;;;;;;5061999;28;20413;-82
2021/04/20 05:20:44;;;;;;;62.27;34.57;;;5.50;96.30;;;;;;5050908;28;20203;-82
2021/04/20 05:23:13;;;;;;;47.20;32.77;;;5.60;96.30;;;;;;5058573;28;20474;-83
2021/04/20 05:25:39;;;;;;;52.60;33.17;;;5.70;96.30;;;;;;5054864;28;20434;-83
2021/04/20 05:28:06;;;;;;;55.17;35.57;;;5.70;96.30;;;;;;5038787;28;20417;-83
2021/04/20 05:30:32;;;;;;;61.37;39.87;;;5.80;96.30;;;;;;5052801;28;20171;-85
2021/04/20 05:32:59;;;;;;;54.47;36.63;;;5.80;96.30;;;;;;5036244;28;20559;-83
2021/04/20 05:35:24;;;;;;;58.33;39.57;;;5.80;96.30;;;;;;5074674;28;20273;-83
2021/04/20 05:37:51;;;;;;;58.90;41.93;;;5.80;96.30;;;;;;5079019;28;20441;-83
2021/04/20 05:40:31;;;;;;;63.90;39.30;;;5.80;96.30;;;;;;5042011;28;20207;-82
2021/04/20 05:42:57;;;;;;;54.83;35.37;;;5.80;96.30;;;;;;5035550;28;20442;-83
2021/04/20 05:45:24;;;;;;;58.87;35.40;;;5.90;96.30;;;;;;5034745;28;20437;-83
2021/04/20 05:47:52;;;;;;;56.20;34.97;;;6.00;96.30;;;;;;5033987;28;20425;-83
2021/04/20 05:50:20;;;;;;;36.77;27.20;;;6.00;96.30;;;;;;5033094;28;20436;-84
2021/04/20 05:52:46;;;;;;;39.80;28.80;;;6.00;96.30;;;;;;5050574;28;20417;-83
2021/04/20 05:55:12;;;;;;;54.40;34.70;;;6.10;96.30;;;;;;5017823;28;20431;-82
2021/04/20 05:57:37;;;;;;;55.47;35.00;;;6.10;96.30;;;;;;5031429;28;20184;-82
2021/04/20 06:00:07;;;;;;;50.03;33.57;;;6.20;96.30;;;;;;5033905;28;20542;-82
2021/04/20 06:02:36;;;;;;;53.93;35.77;;;6.30;96.30;;;;;;5035027;28;20523;-82
2021/04/20 06:05:07;;;;;;;51.63;34.57;;;6.30;96.30;;;;;;5033634;28;20441;-83
2021/04/20 06:07:35;;;;;;;54.17;35.70;;;6.40;96.30;;;;;;5035787;28;20953;-82
2021/04/20 06:10:04;;;;;;;61.00;37.17;;;6.50;96.30;;;;;;5059254;28;20483;-81
2021/04/20 06:12:30;;;;;;;54.40;34.60;;;6.60;96.30;;;;;;5034884;28;20809;-79
2021/04/20 06:14:55;;;;;;;58.30;37.80;;;6.60;96.30;;;;;;5049414;28;20500;-79
2021/04/20 06:17:21;;;;;;;60.57;37.47;;;6.70;96.30;;;;;;5051343;28;20191;-78
2021/04/20 06:19:46;;;;;;;66.57;37.23;;;6.90;96.30;;;;;;5052092;28;20201;-78
2021/04/20 06:22:16;;;;;;;66.53;38.13;;;7.00;96.30;;;;;;5048145;28;20195;-78
2021/04/20 06:24:43;;;;;;;62.77;37.33;;;7.10;96.30;;;;;;5040885;28;20225;-78
2021/04/20 06:27:09;;;;;;;57.23;37.57;;;7.30;96.30;;;;;;5040891;28;20418;-80
2021/04/20 06:29:36;;;;;;;53.83;35.67;;;7.40;96.30;;;;;;5044412;28;20882;-79
2021/04/20 06:32:01;;;;;;;60.00;37.10;;;7.60;96.30;;;;;;5059295;28;20496;-79
2021/04/20 06:34:28;;;;;;;57.00;34.77;;;7.60;96.30;;;;;;5049676;28;20883;-78
2021/04/20 06:36:54;;;;;;;55.60;36.30;;;7.80;96.30;;;;;;5051035;28;20211;-78
2021/04/20 06:39:20;;;;;;;56.57;34.83;;;8.10;96.30;;;;;;5051125;28;20425;-78
2021/04/20 06:41:56;;;;;;;55.13;35.33;;;8.40;96.30;;;;;;5051701;28;21019;-78
2021/04/20 06:44:28;;;;;;;46.10;32.00;;;8.60;96.30;;;;;;5028053;28;20441;-78
2021/04/20 06:47:01;;;;;;;39.63;26.90;;;8.70;96.30;;;;;;5048818;28;20754;-78
2021/04/20 06:49:39;;;;;;;42.43;27.57;;;8.60;96.30;;;;;;5051570;28;20425;-78
2021/04/20 06:52:12;;;;;;;48.43;31.40;;;8.70;96.30;;;;;;5050820;28;20406;-78
2021/04/20 06:54:48;;;;;;;51.77;29.37;;;8.70;96.30;;;;;;5050669;28;20436;-78
2021/04/20 06:57:17;;;;;;;47.33;32.13;;;8.60;96.30;;;;;;5050860;28;20397;-78
2021/04/20 06:59:58;;;;;;;57.67;33.50;;;8.70;96.30;;;;;;5052184;28;20800;-78
2021/04/20 07:02:45;;;;;;;55.97;31.97;;;8.70;96.30;;;;;;5032126;28;20411;-78
2021/04/20 07:05:13;;;;;;;49.97;31.47;;;9.00;96.30;;;;;;5034344;28;20470;-78
2021/04/20 07:07:57;;;;;;;47.83;32.17;;;9.20;96.30;;;;;;5015978;28;20423;-78
2021/04/20 07:10:30;;;;;;;44.33;30.60;;;9.30;96.30;;;;;;5057382;28;20456;-78
2021/04/20 07:12:58;;;;;;;54.30;31.70;;;9.40;96.30;;;;;;5054607;28;20801;-78
2021/04/20 07:15:25;;;;;;;43.80;31.50;;;9.40;96.30;;;;;;5055064;28;20873;-78
2021/04/20 07:18:14;;;;;;;54.87;33.67;;;9.50;96.30;;;;;;5055147;28;20768;-78
2021/04/20 07:21:19;;;;;;;55.10;34.43;;;9.30;96.30;;;;;;5029209;28;20461;-78
2021/04/20 07:24:13;;;;;;;50.20;34.33;;;9.30;96.30;;;;;;5038776;28;20387;-78
2021/04/20 07:26:48;;;;;;;50.30;32.50;;;9.40;96.30;;;;;;5034302;28;20423;-78
2021/04/20 07:29:39;;;;;;;48.77;35.10;;;9.50;96.30;;;;;;5047856;28;20880;-78
2021/04/20 07:32:37;;;;;;;51.20;33.77;;;9.70;96.30;;;;;;5054275;28;20457;-78
2021/04/20 07:35:23;;;;;;;47.20;32.43;;;10.00;96.30;;;;;;5055191;28;20449;-78
2021/04/20 07:37:55;;;;;;;48.77;34.00;;;10.50;96.30;;;;;;5052975;28;20410;-78
2021/04/20 07:40:45;;;;;;;48.97;31.37;;;10.80;96.30;;;;;;5032243;28;20454;-78
2021/04/20 07:43:47;;;;;;;45.67;32.13;;;11.10;96.30;;;;;;5047583;28;20909;-78
2021/04/20 07:46:28;;;;;;;41.63;29.40;;;11.00;96.30;;;;;;5053181;28;20421;-78
2021/04/20 07:49:15;;;;;;;41.20;28.17;;;11.30;96.30;;;;;;5053615;28;20394;-78
2021/04/20 07:51:55;;;;;;;41.33;28.07;;;11.40;96.30;;;;;;5034773;28;20484;-78
2021/04/20 07:54:50;;;;;;;35.40;27.37;;;11.40;96.30;;;;;;5034716;28;20431;-78
2021/04/20 07:57:26;;;;;;;40.03;26.17;;;11.20;96.30;;;;;;5034108;28;20437;-77
2021/04/20 07:59:57;;;;;;;34.20;26.13;;;11.20;96.30;;;;;;5047181;28;20421;-78
2021/04/20 08:02:50;;;;;;;36.83;26.00;;;11.40;96.30;;;;;;5029476;28;20443;-78
2021/04/20 08:05:27;;;;;;;40.60;26.50;;;11.40;96.30;;;;;;5044202;28;20512;-78
2021/04/20 08:08:02;;;;;;;38.00;25.43;;;11.60;96.30;;;;;;5052638;28;20402;-78
2021/04/20 08:10:42;;;;;;;32.80;24.40;;;11.50;96.30;;;;;;5043384;28;20425;-78
2021/04/20 08:13:22;;;;;;;37.37;26.27;;;11.50;96.30;;;;;;5053556;28;20414;-78
2021/04/20 08:16:04;;;;;;;37.77;24.00;;;11.50;96.30;;;;;;5035050;28;20910;-77
2021/04/20 08:18:41;;;;;;;31.27;24.47;;;11.40;96.30;;;;;;5035347;28;20464;-78
2021/04/20 08:21:08;;;;;;;37.73;27.07;;;11.20;96.30;;;;;;5033994;28;20486;-78
2021/04/20 08:23:39;;;;;;;33.33;25.90;;;11.10;96.30;;;;;;5036776;28;20418;-78
2021/04/20 08:26:10;;;;;;;38.70;26.83;;;10.90;96.30;;;;;;5049464;28;20445;-78
2021/04/20 08:28:48;;;;;;;38.10;28.47;;;10.80;96.30;;;;;;5050481;28;20410;-78
2021/04/20 08:31:30;;;;;;;45.60;29.47;;;10.70;96.30;;;;;;5040541;28;20422;-78
2021/04/20 08:34:05;;;;;;;38.80;28.50;;;10.80;96.30;;;;;;5046525;28;20418;-78
2021/04/20 08:36:51;;;;;;;38.37;29.07;;;10.90;96.30;;;;;;5030822;28;20508;-77
2021/04/20 08:39:28;;;;;;;49.40;30.40;;;11.10;96.30;;;;;;5045797;28;20922;-78
2021/04/20 08:42:10;;;;;;;44.30;30.07;;;11.40;96.30;;;;;;5033493;28;20477;-78
2021/04/20 08:44:59;;;;;;;41.47;27.40;;;11.50;96.30;;;;;;5038449;28;20494;-78
2021/04/20 08:48:03;;;;;;;38.37;27.30;;;11.80;96.30;;;;;;5051453;28;20752;-78
2021/04/20 08:50:32;;;;;;;39.90;29.37;;;12.10;96.30;;;;;;5020929;28;20449;-78
2021/04/20 08:53:24;;;;;;;47.27;32.40;;;12.30;96.30;;;;;;5039221;28;20935;-78
2021/04/20 08:56:14;;;;;;;37.20;30.23;;;12.50;96.30;;;;;;5049038;28;20516;-78
2021/04/20 08:59:16;;;;;;;46.20;30.50;;;12.50;96.30;;;;;;5051787;28;20413;-80
2021/04/20 09:01:53;;;;;;;43.93;33.00;;;12.60;96.30;;;;;;5034306;28;20510;-79
2021/04/20 09:04:21;;;;;;;42.63;32.03;;;12.70;96.30;;;;;;5042681;28;20451;-79
2021/04/20 09:06:49;;;;;;;42.97;32.10;;;12.70;96.30;;;;;;5041200;28;20430;-79
2021/04/20 09:09:19;;;;;;;46.20;30.93;;;12.80;96.30;;;;;;5047599;28;20464;-79
2021/04/20 09:11:56;;;;;;;44.63;30.07;;;12.90;96.30;;;;;;5028731;28;20429;-79
2021/04/20 09:14:36;;;;;;;43.50;31.90;;;12.80;96.30;;;;;;5051023;28;20457;-79
2021/04/20 09:17:06;;;;;;;44.07;31.70;;;12.70;96.30;;;;;;5053253;28;20917;-79
2021/04/20 09:19:54;;;;;;;44.07;32.10;;;12.80;96.30;;;;;;5036785;28;20430;-79
2021/04/20 09:22:32;;;;;;;52.63;29.90;;;12.80;96.30;;;;;;5036081;28;20422;-79
2021/04/20 09:25:05;;;;;;;46.17;31.90;;;12.80;96.30;;;;;;5035870;28;20465;-79
2021/04/20 09:28:07;;;;;;;41.77;31.87;;;13.20;96.30;;;;;;5039262;28;20961;-79
2021/04/20 09:30:52;;;;;;;43.87;31.17;;;13.50;96.30;;;;;;5051092;28;20417;-80
2021/04/20 09:33:23;;;;;;;39.80;28.90;;;13.50;96.30;;;;;;5033727;28;20454;-79
2021/04/20 09:35:51;;;;;;;35.77;29.10;;;13.50;96.30;;;;;;5054979;28;20772;-79
2021/04/20 09:38:18;;;;;;;34.23;27.10;;;13.70;96.30;;;;;;5050579;28;20413;-79
2021/04/20 09:40:46;;;;;;;34.70;27.43;;;13.80;96.30;;;;;;5036765;28;20458;-80
2021/04/20 09:43:24;;;;;;;35.47;26.43;;;14.00;96.30;;;;;;5054416;28;20485;-80
2021/04/20 09:45:56;;;;;;;34.67;24.50;;;13.90;96.30;;;;;;5035542;28;20437;-80
2021/04/20 09:48:56;;;;;;;31.53;24.13;;;13.70;96.30;;;;;;5017269;28;20457;-80
2021/04/20 09:51:26;;;;;;;31.83;23.80;;;13.80;96.30;;;;;;5019463;28;20434;-80
2021/04/20 09:53:59;;;;;;;33.37;25.03;;;14.10;96.30;;;;;;5055269;28;20417;-80
2021/04/20 09:56:42;;;;;;;32.53;24.43;;;14.60;96.30;;;;;;5038628;28;20515;-80
2021/04/20 09:59:16;;;;;;;34.23;24.67;;;15.10;96.30;;;;;;5056745;28;20426;-80
2021/04/20 10:01:58;;;;;;;28.70;23.50;;;14.90;96.30;;;;;;5056504;28;20492;-80
2021/04/20 10:04:42;;;;;;;32.13;23.93;;;15.20;96.30;;;;;;5055480;28;20529;-80
2021/04/20 10:07:44;;;;;;;30.93;23.77;;;16.00;96.30;;;;;;5054190;28;20967;-80
2021/04/20 10:10:18;;;;;;;29.40;21.70;;;16.10;96.30;;;;;;5045055;28;20426;-80
2021/04/20 10:12:58;;;;;;;29.43;24.57;;;16.50;96.30;;;;;;5050897;28;20493;-80
2021/04/20 10:15:28;;;;;;;28.33;23.70;;;15.20;96.30;;;;;;5054474;28;20458;-80
2021/04/20 10:18:05;;;;;;;27.13;23.03;;;14.70;96.30;;;;;;5018017;28;20945;-80
2021/04/20 10:20:40;;;;;;;35.87;23.90;;;14.60;96.30;;;;;;5047574;28;20488;-80
2021/04/20 10:23:30;;;;;;;30.77;24.47;;;15.00;96.30;;;;;;5033354;28;20505;-80
2021/04/20 10:26:07;;;;;;;31.47;22.83;;;15.30;96.30;;;;;;5017554;28;20442;-80
2021/04/20 10:28:41;;;;;;;26.83;21.53;;;15.30;96.30;;;;;;5047830;28;20401;-80
2021/04/20 10:31:14;;;;;;;26.63;20.50;;;15.30;96.30;;;;;;5033781;28;20403;-80
2021/04/20 10:33:41;;;;;;;28.27;20.40;;;15.30;96.30;;;;;;5044356;28;20496;-80
2021/04/20 10:36:07;;;;;;;27.27;20.60;;;15.00;96.30;;;;;;5035305;28;20449;-80
2021/04/20 10:38:34;;;;;;;26.20;21.23;;;15.00;96.30;;;;;;5056512;28;21015;-81
2021/04/20 10:41:02;;;;;;;23.50;20.53;;;15.70;96.30;;;;;;5050964;28;20953;-81
2021/04/20 10:43:31;;;;;;;32.17;19.43;;;15.70;96.30;;;;;;5037052;28;20553;-80
2021/04/20 10:46:06;;;;;;;20.60;16.30;;;15.50;96.30;;;;;;5039102;28;20561;-81
2021/04/20 10:48:32;;;;;;;18.00;15.13;;;15.70;96.30;;;;;;5046066;28;20973;-81
2021/04/20 10:50:58;;;;;;;21.40;17.70;;;15.80;94.20;;;;;;5040391;28;20463;-81
2021/04/20 10:53:33;;;;;;;17.97;14.20;;;16.20;96.30;;;;;;5038897;28;20527;-81
2021/04/20 10:56:06;;;;;;;25.33;21.60;;;15.90;89.90;;;;;;5030255;28;20221;-81
2021/04/20 10:58:34;;;;;;;26.47;20.53;;;15.90;96.30;;;;;;5037926;28;20517;-81
2021/04/20 11:01:00;;;;;;;28.93;21.17;;;16.00;96.30;;;;;;5024757;28;21046;-81
2021/04/20 11:03:34;;;;;;;27.33;20.10;;;15.50;94.90;;;;;;5044532;28;20423;-80
2021/04/20 11:06:02;;;;;;;35.33;18.83;;;15.30;96.30;;;;;;5033522;28;20191;-80
2021/04/20 11:08:39;;;;;;;22.07;18.33;;;15.00;96.30;;;;;;5041283;28;20425;-80
2021/04/20 11:11:05;;;;;;;27.37;19.40;;;14.70;96.30;;;;;;5057375;28;20405;-80
2021/04/20 11:13:36;;;;;;;24.47;19.93;;;14.90;96.30;;;;;;5037744;28;20421;-81
2021/04/20 11:16:05;;;;;;;28.63;22.23;;;15.30;96.30;;;;;;5056142;28;20454;-81
2021/04/20 11:18:34;;;;;;;21.93;19.60;;;15.60;96.30;;;;;;5055785;28;20546;-82
2021/04/20 11:21:01;;;;;;;20.53;18.27;;;16.30;96.30;;;;;;5050192;28;21018;-82
2021/04/20 11:23:32;;;;;;;21.50;17.50;;;17.50;95.90;;;;;;5042195;28;20469;-82
2021/04/20 11:26:11;;;;;;;27.37;19.83;;;17.80;86.70;;;;;;5051245;28;20450;-82
2021/04/20 11:28:43;;;;;;;24.67;20.23;;;17.60;89.20;;;;;;5038454;28;20430;-82
2021/04/20 11:31:19;;;;;;;22.60;20.20;;;17.60;94.00;;;;;;5039760;28;20915;-81
2021/04/20 11:33:53;;;;;;;29.50;20.93;;;17.40;91.60;;;;;;5036244;28;20760;-81
2021/04/20 11:36:27;;;;;;;22.43;17.57;;;17.20;96.20;;;;;;5041644;28;20403;-81
2021/04/20 11:38:56;;;;;;;23.53;19.23;;;17.50;90.80;;;;;;5043018;28;20482;-81
2021/04/20 11:41:28;;;;;;;26.63;19.70;;;16.90;93.10;;;;;;5038794;28;20456;-81
2021/04/20 11:44:00;;;;;;;23.07;18.10;;;16.70;96.00;;;;;;5039621;28;20395;-81
2021/04/20 11:46:28;;;;;;;17.90;16.00;;;15.80;96.20;;;;;;5038430;28;20417;-81
2021/04/20 11:48:57;;;;;;;21.83;19.17;;;15.10;96.30;;;;;;5056357;28;20460;-81
2021/04/20 11:51:32;;;;;;;24.33;18.53;;;14.90;96.30;;;;;;5049692;28;20419;-81
2021/04/20 11:53:59;;;;;;;20.80;15.77;;;14.60;96.30;;;;;;5019871;28;20421;-81
2021/04/20 11:56:25;;;;;;;18.57;14.50;;;14.70;96.30;;;;;;5020005;28;20453;-81
2021/04/20 11:58:55;;;;;;;18.70;16.00;;;14.50;96.10;;;;;;5035732;28;20891;-81
2021/04/20 12:01:22;;;;;;;18.57;15.10;;;15.10;96.30;;;;;;5036593;28;20231;-81
2021/04/20 12:04:06;;;;;;;19.20;15.53;;;15.80;96.10;;;;;;5019567;28;20403;-81
2021/04/20 12:06:43;;;;;;;24.87;15.70;;;16.30;94.10;;;;;;5037905;28;20438;-82
2021/04/20 12:09:33;;;;;;;22.37;17.77;;;16.60;96.30;;;;;;5029604;28;20488;-81
2021/04/20 12:12:00;;;;;;;22.37;19.30;;;16.20;93.90;;;;;;5042168;28;20478;-81
2021/04/20 12:14:29;;;;;;;20.40;18.40;;;16.00;93.80;;;;;;5056137;28;20438;-81
2021/04/20 12:16:57;;;;;;;22.07;18.40;;;16.50;92.30;;;;;;5056259;28;20410;-81
2021/04/20 12:19:27;;;;;;;26.30;19.60;;;16.40;91.70;;;;;;5038643;28;20406;-81
2021/04/20 12:21:55;;;;;;;20.80;17.50;;;16.10;96.30;;;;;;5056675;28;20442;-81
2021/04/20 12:24:23;;;;;;;23.73;17.17;;;16.00;94.80;;;;;;5057404;28;20436;-81
2021/04/20 12:26:54;;;;;;;22.30;17.43;;;15.80;92.10;;;;;;5040240;28;20410;-81
2021/04/20 12:29:21;;;;;;;21.87;17.43;;;15.30;93.80;;;;;;5036932;28;20457;-81
2021/04/20 12:31:47;;;;;;;21.10;18.80;;;15.40;96.30;;;;;;5037365;28;20418;-81
2021/04/20 12:34:13;;;;;;;19.63;17.50;;;15.50;95.70;;;;;;5038301;28;20427;-80
2021/04/20 12:36:46;;;;;;;25.63;19.30;;;15.40;94.30;;;;;;5037358;28;20806;-81
2021/04/20 12:39:24;;;;;;;19.87;17.77;;;15.30;96.30;;;;;;5036578;28;20189;-81
2021/04/20 12:41:50;;;;;;;22.43;15.83;;;15.70;92.40;;;;;;5037245;28;20462;-80
2021/04/20 12:44:21;;;;;;;16.80;14.87;;;16.00;93.70;;;;;;5038055;28;20525;-81
2021/04/20 12:46:46;;;;;;;18.07;16.17;;;16.50;90.00;;;;;;5038613;28;20501;-81
2021/04/20 12:49:14;;;;;;;18.13;13.97;;;16.40;91.10;;;;;;5056148;28;20453;-81
2021/04/20 12:51:42;;;;;;;15.57;13.93;;;16.60;88.90;;;;;;5055715;28;20179;-80
2021/04/20 12:54:19;;;;;;;19.83;15.03;;;16.10;87.00;;;;;;5059196;28;20749;-81
2021/04/20 12:56:45;;;;;;;18.63;15.30;;;15.60;88.50;;;;;;5058720;28;20402;-80
2021/04/20 12:59:23;;;;;;;22.67;15.73;;;15.80;91.70;;;;;;5056695;28;20894;-80
2021/04/20 13:01:57;;;;;;;31.10;17.97;;;15.60;94.60;;;;;;5039105;28;20457;-81
2021/04/20 13:04:29;;;;;;;21.27;17.60;;;15.10;95.10;;;;;;5040457;28;20487;-80
2021/04/20 13:06:56;;;;;;;27.70;22.90;;;14.70;95.80;;;;;;5064215;28;20413;-80
2021/04/20 13:09:24;;;;;;;26.30;21.57;;;14.10;96.30;;;;;;5063048;28;20418;-80
2021/04/20 13:11:53;;;;;;;25.33;22.63;;;13.80;96.30;;;;;;5056607;28;20414;-80
2021/04/20 13:14:20;;;;;;;27.30;21.50;;;13.40;96.30;;;;;;5057269;28;20453;-80
2021/04/20 13:16:50;;;;;;;26.93;22.40;;;13.20;96.30;;;;;;5056794;28;20444;-80
2021/04/20 13:19:21;;;;;;;27.27;24.37;;;13.10;96.30;;;;;;5055445;28;20414;-80
2021/04/20 13:21:48;;;;;;;25.30;21.00;;;13.10;96.30;;;;;;5055646;28;20786;-80
2021/04/20 13:24:15;;;;;;;25.07;21.70;;;13.50;96.30;;;;;;5054490;28;20421;-80
2021/04/20 13:26:47;;;;;;;27.23;21.40;;;14.60;96.30;;;;;;5055291;28;20406;-80
2021/04/20 13:29:14;;;;;;;27.57;22.60;;;15.60;96.30;;;;;;5054006;28;20402;-80
2021/04/20 13:31:41;;;;;;;24.97;19.93;;;16.20;93.70;;;;;;5055430;28;20977;-80
2021/04/20 13:34:11;;;;;;;21.57;19.37;;;16.10;90.90;;;;;;5055850;28;20417;-80
2021/04/20 13:36:43;;;;;;;25.07;19.10;;;15.50;90.70;;;;;;5055691;28;20450;-80
2021/04/20 13:39:20;;;;;;;20.87;17.50;;;15.50;96.30;;;;;;5056549;28;20405;-80
2021/04/20 13:41:56;;;;;;;24.63;17.93;;;15.40;94.50;;;;;;5054438;28;21045;-80
2021/04/20 13:44:29;;;;;;;21.17;17.50;;;15.40;93.30;;;;;;5041354;28;20433;-81
2021/04/20 13:46:57;;;;;;;19.57;17.60;;;15.10;91.90;;;;;;5056638;28;20485;-81
2021/04/20 13:49:22;;;;;;;19.90;16.40;;;14.80;96.30;;;;;;5036104;28;20402;-80
2021/04/20 13:52:07;;;;;;;19.67;15.60;;;15.00;96.30;;;;;;5051157;28;20427;-80
2021/04/20 13:54:35;;;;;;;20.40;15.53;;;15.00;92.70;;;;;;5036863;28;20192;-80
2021/04/20 13:57:05;;;;;;;19.03;14.00;;;14.60;91.90;;;;;;5038685;28;20422;-80
2021/04/20 13:59:35;;;;;;;13.40;12.00;;;14.40;88.90;;;;;;5057396;28;20409;-80
2021/04/20 14:02:04;;;;;;;14.13;11.63;;;14.50;90.70;;;;;;5039200;28;20458;-80
2021/04/20 14:04:35;;;;;;;15.33;13.20;;;14.50;93.80;;;;;;5059516;28;20958;-81
2021/04/20 14:07:05;;;;;;;20.23;15.07;;;14.70;93.80;;;;;;5066448;28;20430;-80
2021/04/20 14:09:37;;;;;;;18.73;15.20;;;15.10;91.80;;;;;;5067602;28;20410;-80
2021/04/20 14:12:15;;;;;;;19.23;17.20;;;15.40;92.10;;;;;;5055508;28;20422;-81
2021/04/20 14:14:54;;;;;;;19.10;16.43;;;14.90;94.30;;;;;;5055360;28;20544;-80
2021/04/20 14:17:20;;;;;;;20.33;17.60;;;14.30;96.30;;;;;;5055447;28;20414;-80
2021/04/20 14:19:51;;;;;;;19.50;15.33;;;14.10;94.90;;;;;;5055869;28;20437;-80
2021/04/20 14:22:17;;;;;;;20.27;17.70;;;14.00;96.30;;;;;;5055988;28;20422;-80
2021/04/20 14:24:44;;;;;;;17.30;15.50;;;13.90;96.00;;;;;;5055856;28;20430;-80
2021/04/20 14:27:11;;;;;;;20.47;15.57;;;14.00;96.30;;;;;;5036540;28;20240;-80
2021/04/20 14:29:37;;;;;;;19.30;15.70;;;14.00;96.30;;;;;;5037171;28;20406;-80
2021/04/20 14:32:08;;;;;;;19.80;15.77;;;13.90;96.00;;;;;;5036015;28;20464;-80
2021/04/20 14:34:35;;;;;;;16.47;14.77;;;14.00;94.30;;;;;;5037034;28;20825;-80
2021/04/20 14:37:01;;;;;;;24.13;16.10;;;14.30;93.40;;;;;;5053033;28;20412;-79
2021/04/20 14:39:33;;;;;;;18.63;16.00;;;15.00;93.90;;;;;;5054867;28;20406;-81
2021/04/20 14:42:01;;;;;;;17.37;15.67;;;15.60;89.70;;;;;;5053930;28;20442;-81
2021/04/20 14:44:30;;;;;;;17.43;14.73;;;16.10;88.60;;;;;;5037053;28;20437;-81
2021/04/20 14:47:07;;;;;;;21.93;15.70;;;16.70;90.00;;;;;;5043020;28;20407;-81
2021/04/20 14:49:34;;;;;;;19.60;15.53;;;16.60;86.20;;;;;;5036250;28;20414;-81
2021/04/20 14:52:04;;;;;;;16.93;14.03;;;16.40;84.90;;;;;;5036278;28;20760;-80
2021/04/20 14:54:34;;;;;;;17.00;14.23;;;15.40;86.10;;;;;;5032774;28;20426;-80
2021/04/20 14:57:01;;;;;;;16.43;14.00;;;14.80;88.80;;;;;;5045069;28;20414;-80
2021/04/20 14:59:30;;;;;;;17.23;7.97;;;14.30;89.90;;;;;;5050552;28;20505;-80
2021/04/20 15:01:58;;;;;;;12.07;8.90;;;13.50;91.80;;;;;;5050497;28;20984;-80
2021/04/20 15:04:30;;;;;;;14.23;7.73;;;13.20;93.20;;;;;;5052739;28;20468;-81
2021/04/20 15:07:10;;;;;;;11.27;7.87;;;12.80;95.10;;;;;;5051336;28;20410;-81
2021/04/20 15:09:51;;;;;;;10.80;9.40;;;12.50;96.30;;;;;;5051037;28;20455;-80
2021/04/20 15:12:25;;;;;;;15.17;8.80;;;12.40;96.30;;;;;;5050863;28;20413;-81
2021/04/20 15:14:59;;;;;;;12.10;7.83;;;12.30;96.30;;;;;;5035365;28;20882;-80
2021/04/20 15:17:32;;;;;;;8.20;6.83;;;12.30;96.30;;;;;;5048357;28;20769;-80
2021/04/20 15:19:59;;;;;;;9.23;7.17;;;12.30;96.30;;;;;;5035663;28;20406;-80
2021/04/20 15:22:29;;;;;;;11.80;7.60;;;12.40;96.30;;;;;;5052844;28;20414;-80
2021/04/20 15:24:57;;;;;;;11.03;7.30;;;12.20;96.30;;;;;;5056381;28;20437;-80
2021/04/20 15:27:48;;;;;;;9.90;7.80;;;12.10;96.30;;;;;;5039871;28;20418;-80
2021/04/20 15:30:22;;;;;;;11.43;8.30;;;12.00;96.30;;;;;;5056654;28;20927;-81
2021/04/20 15:32:59;;;;;;;11.50;9.00;;;;;;;;;;5048668;28;20410;-80
2021/04/20 15:35:28;;;;;;;11.40;8.20;;;11.80;96.30;;;;;;5034590;28;20434;-80
2021/04/20 15:37:57;;;;;;;12.70;8.00;;;12.00;96.30;;;;;;5038280;28;20421;-80
2021/04/20 15:40:25;;;;;;;8.53;7.30;;;12.10;96.30;;;;;;5049652;28;20461;-80
2021/04/20 15:42:58;;;;;;;10.07;6.97;;;12.10;96.30;;;;;;5053827;28;20414;-80
2021/04/20 15:45:29;;;;;;;20.57;7.80;;;12.10;96.30;;;;;;5042835;28;20481;-80
2021/04/20 15:47:55;;;;;;;8.57;7.17;;;12.20;96.30;;;;;;5052946;28;20414;-80
2021/04/20 15:50:27;;;;;;;11.20;7.03;;;12.20;96.30;;;;;;5056585;28;20421;-80
2021/04/20 15:52:54;;;;;;;9.40;7.37;;;12.20;96.30;;;;;;5057087;28;20182;-80
2021/04/20 15:55:31;;;;;;;9.90;7.57;;;12.20;96.30;;;;;;5051729;28;20563;-80
2021/04/20 15:57:58;;;;;;;12.13;7.63;;;12.10;96.30;;;;;;5056009;28;20409;-80
2021/04/20 16:00:34;;;;;;;10.50;7.70;;;12.00;96.30;;;;;;5057155;28;20479;-80
2021/04/20 16:03:02;;;;;;;15.97;8.10;;;12.10;96.30;;;;;;5057041;28;20406;-80
2021/04/20 16:05:33;;;;;;;9.60;8.27;;;12.00;96.30;;;;;;5056166;28;21116;-80
2021/04/20 16:08:10;;;;;;;10.13;7.73;;;12.00;96.30;;;;;;5033143;28;20442;-80
2021/04/20 16:10:38;;;;;;;11.33;8.93;;;11.90;96.30;;;;;;5038662;28;20456;-80
2021/04/20 16:13:06;;;;;;;10.87;8.80;;;12.00;96.30;;;;;;5036866;28;20426;-80
2021/04/20 16:15:36;;;;;;;10.60;8.40;;;11.90;96.30;;;;;;5055944;28;20520;-80
2021/04/20 16:18:05;;;;;;;12.10;8.27;;;12.00;96.30;;;;;;5055273;28;20467;-80
2021/04/20 16:20:34;;;;;;;10.77;7.67;;;11.90;96.30;;;;;;5054718;28;21128;-80
2021/04/20 16:23:03;;;;;;;8.73;7.83;;;12.10;96.30;;;;;;5035498;28;20406;-80
2021/04/20 16:25:32;;;;;;;11.80;8.07;;;12.10;96.30;;;;;;5052477;28;20438;-80
2021/04/20 16:28:05;;;;;;;9.37;7.90;;;11.90;96.30;;;;;;5046336;28;20424;-80
2021/04/20 16:30:32;;;;;;;17.30;13.70;;;11.60;96.30;;;;;;5053641;28;20425;-80
2021/04/20 16:33:01;;;;;;;14.47;11.40;;;11.40;96.30;;;;;;5053253;28;20523;-80
2021/04/20 16:35:31;;;;;;;12.50;9.47;;;11.20;96.30;;;;;;5051419;28;21011;-80
2021/04/20 16:38:19;;;;;;;9.43;7.67;;;11.10;96.30;;;;;;5033573;28;20430;-80
2021/04/20 16:41:11;;;;;;;10.10;7.57;;;11.00;96.30;;;;;;5032059;28;20453;-79
2021/04/20 16:43:53;;;;;;;11.03;7.63;;;10.80;96.30;;;;;;5035642;28;20418;-79
2021/04/20 16:46:33;;;;;;;8.10;7.00;;;10.70;96.30;;;;;;5032649;28;20432;-79
2021/04/20 16:49:32;;;;;;;8.47;7.57;;;10.60;96.30;;;;;;5035493;28;20414;-79
2021/04/20 16:52:21;;;;;;;15.27;11.07;;;10.60;96.30;;;;;;5040673;28;20406;-79
2021/04/20 16:55:01;;;;;;;10.03;8.87;;;10.50;96.30;;;;;;5044448;28;20465;-79
2021/04/20 16:57:49;;;;;;;8.90;7.40;;;10.50;96.30;;;;;;5047929;28;20505;-79
2021/04/20 17:00:22;;;;;;;7.93;7.13;;;10.40;96.30;;;;;;5052646;28;20409;-79